Capo Mele, Italy

3:06 PM CEST on May 22, 2015 (GMT +0200)
ILIGURIA92 | | Change Station
CLOSE
Current Station
Personal Weather Station
Location: Andora, LIGURIA
Elevation: 469 ft
Nearby Weather Stations

Elev 469 ft 43.97 °N, 8.16 °E | Updated 6 minutes ago

Scattered Clouds
Scattered Clouds
68.1 °F
Feels Like 68.1 °F
N
4.0
Wind Variable Wind from SSE
Gusts 8.0 mph

Today
High -- | Low -- °F
--% Chance of Precip.
Yesterday
High -- | Low -- °F
Precip. -- in
5:55 AM 8:53 PM
Waxing Crescent, 21% visible
Pressure 29.92 in
Visibility 6.2 miles
Clouds Scattered Clouds 6500 ft
Dew Point 44 °F
Humidity 42%
Rainfall 0.04 in
Snow Depth Not available.
UV 8 out of 12
Pollen Not available.
Air Quality Not available.
Flu Activity Not available.
METAR LIMG 221250Z VRB06KT 9999 SCT065 23/02 Q1013

More Conditions Fewer Conditions

Pressure 29.92 in
Visibility 6.2 miles
Clouds Scattered Clouds 6500 ft
Dew Point 44 °F
Humidity 42%
Rainfall 0.04 in
Snow Depth Not available.
UV 8 out of 12
Pollen Not available.
Air Quality Not available.
Flu Activity Not available.
METAR LIMG 221250Z VRB06KT 9999 SCT065 23/02 Q1013

More Conditions Fewer Conditions

10-Day Weather Forecast

Almanac

Astronomy

May. 22, 2015 Rise Set
Actual Time
Civil Twilight
Nautical Twilight
Astronomical Twilight
Moon
Length of Visible Light
Length of Day
Tomorrow will be .
, % of the Moon is Illuminated

Today's Extremes

Country Highs Country Lows

Community

WunderPhotos

Upload Photos

1,823,210 photos uploaded!

WunderBlogs® & News

Nearby

Air Quality

  Air Quality AQ Index Pollutant
Not available.

Snow Depth

Station Depth Elevation

Earthquake Activity

City Distance Mag. Time & Date
Minimum magnitude displayed is 2.5.

Coastal Water Temperatures

Place Temperature

Stations

Nearby Weather Stations

Station Location Temp. Windchill Dew Point Humidity Wind Precip. Elev Updated Type